PER weather

Perth International Airport
Perth, Western Australia, Australia

Public forecast

Using degrees Celsius for public forecast. Weather courtesy of forecast.io.

Current aviation weather report (METAR) for Perth International Airport

Retrieved 2019/12/16 04:30 UTC (8 minutes ago):

YPPH 160430Z 26014KT CAVOK 38/11 Q1005 NOSIG

Aviation forecast (TAF) for Perth International Airport

Retrieved 2019-12-16 00:00 UTC (5 hours ago):

TAF YPPH 152308Z 1600/1706 22007KT CAVOK FM160400 24015KT CAVOK FM161000 22011KT CAVOK FM161300 VRB03KT CAVOK FM161800 VRB03KT 9999 SCT005 FM162200 17007KT CAVOK FM170200 23013KT CAVOK